createdAt,value
2022-12-01T00:01:06.023Z,46.22
2022-12-01T00:03:33.269Z,45.42
2022-12-01T00:06:05.901Z,46.95
2022-12-01T00:08:33.840Z,43.38
2022-12-01T00:11:08.685Z,43.97
2022-12-01T00:13:35.625Z,46.03
2022-12-01T00:16:15.377Z,43.70
2022-12-01T00:18:42.281Z,44.55
2022-12-01T00:21:16.038Z,46.80
2022-12-01T00:23:47.434Z,44.63
2022-12-01T00:26:15.030Z,44.03
2022-12-01T00:28:41.759Z,43.72
2022-12-01T00:31:12.147Z,46.85
2022-12-01T00:33:39.488Z,46.47
2022-12-01T00:36:07.375Z,46.13
2022-12-01T00:38:34.489Z,46.55
2022-12-01T00:41:00.955Z,49.20
2022-12-01T00:43:27.364Z,46.65
2022-12-01T00:45:53.867Z,46.40
2022-12-01T00:48:20.764Z,46.83
2022-12-01T00:50:47.506Z,46.30
2022-12-01T00:53:14.947Z,46.40
2022-12-01T00:55:41.314Z,46.33
2022-12-01T00:58:07.778Z,45.38
2022-12-01T01:00:34.665Z,48.20
2022-12-01T01:03:01.582Z,44.97
2022-12-01T01:05:27.939Z,43.50
2022-12-01T01:07:54.427Z,45.88
2022-12-01T01:10:20.898Z,46.22
2022-12-01T01:12:47.272Z,46.08
2022-12-01T01:15:13.679Z,44.60
2022-12-01T01:17:40.072Z,48.28
2022-12-01T01:20:07.153Z,46.38
2022-12-01T01:22:35.123Z,47.47
2022-12-01T01:25:01.668Z,47.90
2022-12-01T01:27:28.196Z,45.40
2022-12-01T01:29:54.527Z,45.97
2022-12-01T01:32:20.958Z,48.63
2022-12-01T01:34:47.343Z,47.53
2022-12-01T01:37:13.740Z,47.60
2022-12-01T01:39:40.814Z,46.95
2022-12-01T01:42:12.490Z,47.35
2022-12-01T01:44:50.044Z,44.42
2022-12-01T01:47:22.089Z,48.03
2022-12-01T01:49:48.984Z,48.92
2022-12-01T01:52:16.281Z,47.88
2022-12-01T01:54:47.048Z,47.42
2022-12-01T01:57:20.631Z,46.88
2022-12-01T01:59:52.512Z,48.47
2022-12-01T02:02:18.982Z,47.13
2022-12-01T02:04:48.652Z,46.97
2022-12-01T02:07:18.663Z,49.65
2022-12-01T02:09:45.316Z,48.78
2022-12-01T02:12:36.089Z,48.85
2022-12-01T02:15:37.332Z,48.72
2022-12-01T02:18:26.506Z,46.50
2022-12-01T02:21:27.770Z,49.50
2022-12-01T02:24:26.406Z,49.03
2022-12-01T02:27:05.049Z,49.15
2022-12-01T02:29:41.641Z,47.35
2022-12-01T02:32:29.903Z,49.22
2022-12-01T02:35:14.584Z,48.65
2022-12-01T02:38:05.871Z,46.38
2022-12-01T02:40:41.370Z,47.95
2022-12-01T02:43:17.677Z,47.50
2022-12-01T02:45:53.631Z,49.40
2022-12-01T02:48:27.327Z,49.30
2022-12-01T02:50:57.983Z,46.35
2022-12-01T02:53:24.702Z,48.40
2022-12-01T02:55:57.702Z,51.45
2022-12-01T02:58:24.333Z,48.60
2022-12-01T03:01:20.128Z,48.83
2022-12-01T03:04:22.232Z,48.35
2022-12-01T03:07:10.695Z,50.78
2022-12-01T03:09:44.610Z,50.05
2022-12-01T03:12:23.537Z,50.58
2022-12-01T03:15:03.412Z,49.88
2022-12-01T03:17:43.279Z,48.83
2022-12-01T03:20:23.539Z,48.38
2022-12-01T03:22:55.503Z,51.60
2022-12-01T03:25:26.175Z,48.72
2022-12-01T03:28:20.327Z,51.22
2022-12-01T03:30:45.213Z,51.30
2022-12-01T03:33:19.122Z,48.90
2022-12-01T03:35:53.941Z,51.50
2022-12-01T03:38:28.871Z,51.28
2022-12-01T03:41:00.834Z,50.17
2022-12-01T03:43:33.369Z,50.70
2022-12-01T03:46:09.172Z,49.58
2022-12-01T03:48:36.892Z,50.75
2022-12-01T03:51:14.030Z,52.92
2022-12-01T03:54:09.579Z,50.20
2022-12-01T03:57:00.197Z,51.60
2022-12-01T03:59:29.397Z,52.20
2022-12-01T04:01:57.353Z,51.33
2022-12-01T04:04:24.503Z,51.83
2022-12-01T04:06:51.347Z,52.05
2022-12-01T04:09:17.928Z,51.45
2022-12-01T04:12:03.173Z,49.88
2022-12-01T04:14:30.140Z,50.25
2022-12-01T04:16:56.507Z,50.67
2022-12-01T04:19:23.886Z,49.85
2022-12-01T04:21:50.241Z,51.78
2022-12-01T04:24:16.751Z,51.10
2022-12-01T04:26:43.407Z,52.45
2022-12-01T04:29:10.853Z,54.08
2022-12-01T04:31:37.672Z,51.40
2022-12-01T04:34:04.603Z,49.40
2022-12-01T04:36:32.638Z,53.60
2022-12-01T04:38:59.208Z,50.70
2022-12-01T04:41:25.595Z,48.47
2022-12-01T04:43:55.807Z,51.17
2022-12-01T04:46:23.163Z,50.47
2022-12-01T04:48:49.591Z,47.88
2022-12-01T04:51:16.057Z,50.53
2022-12-01T04:53:42.496Z,51.15
2022-12-01T04:56:09.214Z,51.28
2022-12-01T04:58:37.611Z,49.33
2022-12-01T05:01:06.388Z,52.08
2022-12-01T05:03:36.614Z,50.50
2022-12-01T05:06:08.239Z,49.05
2022-12-01T05:08:35.859Z,48.95
2022-12-01T05:11:02.792Z,52.70
2022-12-01T05:13:29.305Z,48.80
2022-12-01T05:16:06.240Z,49.55
2022-12-01T05:18:32.914Z,49.90
2022-12-01T05:20:59.455Z,50.45
2022-12-01T05:23:27.630Z,51.15
2022-12-01T05:25:54.731Z,49.50
2022-12-01T05:28:23.390Z,50.05
2022-12-01T05:30:50.507Z,53.25
2022-12-01T05:33:17.350Z,50.95
2022-12-01T05:35:44.236Z,48.72
2022-12-01T05:38:11.064Z,51.13
2022-12-01T05:40:37.484Z,48.15
2022-12-01T05:43:04.503Z,47.45
2022-12-01T05:45:31.580Z,48.67
2022-12-01T05:47:59.760Z,49.17
2022-12-01T05:50:27.521Z,49.35
2022-12-01T05:52:55.288Z,48.22
2022-12-01T05:55:22.798Z,49.70
2022-12-01T05:57:49.270Z,48.03
2022-12-01T06:00:16.305Z,49.15
2022-12-01T06:02:42.875Z,49.15
2022-12-01T06:05:09.534Z,47.20
2022-12-01T06:07:35.936Z,45.67
2022-12-01T06:10:03.288Z,49.00
2022-12-01T06:12:29.634Z,48.92
2022-12-01T06:14:56.057Z,47.65
2022-12-01T06:17:22.410Z,48.70
2022-12-01T06:19:49.108Z,46.25
2022-12-01T06:22:15.686Z,50.92
2022-12-01T06:24:42.151Z,50.15
2022-12-01T06:27:08.549Z,50.08
2022-12-01T06:29:40.582Z,51.47
2022-12-01T06:32:09.478Z,51.10
2022-12-01T06:34:35.861Z,50.13
2022-12-01T06:37:02.243Z,49.17
2022-12-01T06:39:28.695Z,48.45
2022-12-01T06:41:55.134Z,48.13
2022-12-01T06:44:21.479Z,49.45
2022-12-01T06:46:52.699Z,49.25
2022-12-01T06:49:19.705Z,50.22
2022-12-01T06:51:46.375Z,47.38
2022-12-01T06:54:12.827Z,49.33
2022-12-01T06:56:39.500Z,46.40
2022-12-01T06:59:06.195Z,48.97
2022-12-01T07:01:33.072Z,48.50
2022-12-01T07:03:59.567Z,49.00
2022-12-01T07:06:26.127Z,48.45
2022-12-01T07:08:53.074Z,50.15
2022-12-01T07:11:19.485Z,49.85
2022-12-01T07:13:46.007Z,49.00
2022-12-01T07:16:12.928Z,50.03
2022-12-01T07:18:40.383Z,46.78
2022-12-01T07:21:10.116Z,48.30
2022-12-01T07:23:36.578Z,48.88
2022-12-01T07:26:11.113Z,47.70
2022-12-01T07:28:37.645Z,48.67
2022-12-01T07:31:06.182Z,48.08
2022-12-01T07:33:32.755Z,49.20
2022-12-01T07:35:59.131Z,46.58
2022-12-01T07:38:27.680Z,45.75
2022-12-01T07:40:54.111Z,47.20
2022-12-01T07:43:20.487Z,47.10
2022-12-01T07:45:47.172Z,48.00
2022-12-01T07:48:13.648Z,46.38
2022-12-01T07:50:40.057Z,45.33
2022-12-01T07:53:06.730Z,46.10
2022-12-01T07:55:33.251Z,45.78
2022-12-01T07:58:00.688Z,45.30
2022-12-01T08:00:27.232Z,43.33
2022-12-01T08:02:53.597Z,45.17
2022-12-01T08:05:20.003Z,45.47
2022-12-01T08:07:46.431Z,45.30
2022-12-01T08:10:12.838Z,46.60
2022-12-01T08:12:39.200Z,44.30
2022-12-01T08:15:06.021Z,43.85
2022-12-01T08:17:32.446Z,43.65
2022-12-01T08:19:58.792Z,44.72
2022-12-01T08:22:25.217Z,44.28
2022-12-01T08:24:51.545Z,43.88
2022-12-01T08:27:17.982Z,41.95
2022-12-01T08:29:44.419Z,42.08
2022-12-01T08:32:10.838Z,42.92
2022-12-01T08:34:38.554Z,43.03
2022-12-01T08:37:04.947Z,40.92
2022-12-01T08:39:31.378Z,44.00
2022-12-01T08:41:57.814Z,44.85
2022-12-01T08:44:24.257Z,44.03
2022-12-01T08:46:50.718Z,42.72
2022-12-01T08:49:17.323Z,40.75
2022-12-01T08:51:43.748Z,40.85
2022-12-01T08:54:12.161Z,38.05
2022-12-01T08:56:42.174Z,39.13
2022-12-01T08:59:09.008Z,37.20
2022-12-01T09:01:51.551Z,40.25
2022-12-01T09:04:19.889Z,40.97
2022-12-01T09:06:48.192Z,39.30
2022-12-01T09:09:20.937Z,40.72
2022-12-01T09:11:47.878Z,41.25
2022-12-01T09:14:16.535Z,38.88
2022-12-01T09:16:44.854Z,39.58
2022-12-01T09:19:13.183Z,39.28
2022-12-01T09:21:42.634Z,40.30
2022-12-01T09:24:13.807Z,40.08
2022-12-01T09:26:40.872Z,38.28
2022-12-01T09:29:10.302Z,39.22
2022-12-01T09:31:37.871Z,38.35
2022-12-01T09:34:07.090Z,38.67
2022-12-01T09:36:35.200Z,39.90
2022-12-01T09:39:02.205Z,38.00
2022-12-01T09:41:35.485Z,39.20
2022-12-01T09:44:15.161Z,41.00
2022-12-01T09:46:49.782Z,37.95
2022-12-01T09:49:23.786Z,41.13
2022-12-01T09:51:52.466Z,38.10
2022-12-01T09:54:18.929Z,38.10
2022-12-01T09:56:50.201Z,37.53
2022-12-01T09:59:20.692Z,40.83
2022-12-01T10:01:50.895Z,38.70
2022-12-01T10:04:22.766Z,38.83
2022-12-01T10:06:57.902Z,38.75
2022-12-01T10:09:48.600Z,39.97
2022-12-01T10:12:18.117Z,39.83
2022-12-01T10:14:46.392Z,36.90
2022-12-01T10:17:28.255Z,36.97
2022-12-01T10:20:03.388Z,39.95
2022-12-01T10:22:49.245Z,37.63
2022-12-01T10:25:24.772Z,38.10
2022-12-01T10:28:12.463Z,35.40
2022-12-01T10:30:49.759Z,36.10
2022-12-01T10:33:24.810Z,33.35
2022-12-01T10:35:51.715Z,32.13
2022-12-01T10:38:27.822Z,31.85
2022-12-01T10:40:58.443Z,29.95
2022-12-01T10:43:37.523Z,30.25
2022-12-01T10:46:19.714Z,28.98
2022-12-01T10:48:57.762Z,29.27
2022-12-01T10:51:25.716Z,27.48
2022-12-01T10:54:07.074Z,28.90
2022-12-01T10:56:33.969Z,25.27
2022-12-01T10:59:16.923Z,28.67
2022-12-01T11:01:48.170Z,25.98
2022-12-01T11:04:29.557Z,27.00
2022-12-01T11:06:56.890Z,26.15
2022-12-01T11:09:28.966Z,27.98
2022-12-01T11:12:01.040Z,27.90
2022-12-01T11:14:46.507Z,28.85
2022-12-01T11:17:22.368Z,29.02
2022-12-01T11:19:49.272Z,29.38
2022-12-01T11:22:25.371Z,28.83
2022-12-01T11:24:59.693Z,30.85
2022-12-01T11:27:30.471Z,30.83
2022-12-01T11:30:04.954Z,29.80
2022-12-01T11:32:35.366Z,30.85
2022-12-01T11:35:14.212Z,29.73
2022-12-01T11:38:13.310Z,28.25
2022-12-01T11:40:45.838Z,30.23
2022-12-01T11:43:23.377Z,29.08
2022-12-01T11:45:50.207Z,28.83
2022-12-01T11:48:29.710Z,29.83
2022-12-01T11:51:20.244Z,28.42
2022-12-01T11:54:23.496Z,29.35
2022-12-01T11:57:17.363Z,26.30
2022-12-01T11:59:38.305Z,26.33
2022-12-01T12:02:20.932Z,26.20
2022-12-01T12:05:18.208Z,25.02
2022-12-01T12:08:05.614Z,24.80
2022-12-01T12:10:44.001Z,25.08
2022-12-01T12:13:25.195Z,27.52
2022-12-01T12:16:19.799Z,25.67
2022-12-01T12:19:28.968Z,27.02
2022-12-01T12:22:11.956Z,27.60
2022-12-01T12:24:48.793Z,26.80
2022-12-01T12:27:29.278Z,26.17
2022-12-01T12:30:26.132Z,26.30
2022-12-01T12:33:33.319Z,26.67
2022-12-01T12:36:38.633Z,26.13
2022-12-01T12:39:36.735Z,26.88
2022-12-01T12:42:14.721Z,25.90
2022-12-01T12:44:51.573Z,28.08
2022-12-01T12:47:50.992Z,27.02
2022-12-01T12:50:31.946Z,28.58
2022-12-01T12:53:04.562Z,26.48
2022-12-01T12:55:39.744Z,26.40
2022-12-01T12:58:26.910Z,27.67
2022-12-01T13:01:03.424Z,25.33
2022-12-01T13:03:49.031Z,24.35
2022-12-01T13:06:25.795Z,21.70
2022-12-01T13:08:59.153Z,24.77
2022-12-01T13:11:40.093Z,24.92
2022-12-01T13:14:15.629Z,26.20
2022-12-01T13:16:46.392Z,21.60
2022-12-01T13:19:16.589Z,22.58
2022-12-01T13:21:46.842Z,22.98
2022-12-01T13:24:23.388Z,21.88
2022-12-01T13:26:55.978Z,22.90
2022-12-01T13:29:25.486Z,22.05
2022-12-01T13:31:53.722Z,20.92
2022-12-01T13:34:39.707Z,21.20
2022-12-01T13:37:08.918Z,18.95
2022-12-01T13:39:40.853Z,20.13
2022-12-01T13:42:35.064Z,18.67
2022-12-01T13:45:10.426Z,18.95
2022-12-01T13:47:51.381Z,18.95
2022-12-01T13:50:36.159Z,18.52
2022-12-01T13:53:17.783Z,19.77
2022-12-01T13:56:16.459Z,17.55
2022-12-01T13:58:53.183Z,17.80
2022-12-01T14:01:19.860Z,20.13
2022-12-01T14:04:11.222Z,17.95
2022-12-01T14:06:49.266Z,18.98
2022-12-01T14:09:33.236Z,19.38
2022-12-01T14:12:06.341Z,18.05
2022-12-01T14:14:36.961Z,18.85
2022-12-01T14:17:04.517Z,17.88
2022-12-01T14:19:39.371Z,17.88
2022-12-01T14:22:07.610Z,16.42
2022-12-01T14:24:43.482Z,18.35
2022-12-01T14:27:11.883Z,18.70
2022-12-01T14:29:42.957Z,18.10
2022-12-01T14:32:09.366Z,18.00
2022-12-01T14:34:39.452Z,18.70
2022-12-01T14:37:20.833Z,17.90
2022-12-01T14:39:58.086Z,16.98
2022-12-01T14:42:51.897Z,18.30
2022-12-01T14:45:34.134Z,17.90
2022-12-01T14:48:04.260Z,18.00
2022-12-01T14:51:10.587Z,17.52
2022-12-01T14:53:41.865Z,18.65
2022-12-01T14:56:16.166Z,18.02
2022-12-01T14:59:00.537Z,17.40
2022-12-01T15:01:33.908Z,17.65
2022-12-01T15:04:03.201Z,17.38
2022-12-01T15:06:31.991Z,31.15
2022-12-01T15:12:07.514Z,22.85
2022-12-01T15:14:47.079Z,22.65
2022-12-01T15:17:31.083Z,21.17
2022-12-01T15:19:58.598Z,19.75
2022-12-01T15:22:30.532Z,20.08
2022-12-01T15:25:15.141Z,19.00
2022-12-01T15:27:43.158Z,18.40
2022-12-01T15:30:14.456Z,19.58
2022-12-01T15:32:45.607Z,19.17
2022-12-01T15:35:20.549Z,19.48
2022-12-01T15:37:47.484Z,17.70
2022-12-01T15:43:14.330Z,17.95
2022-12-01T15:46:09.841Z,16.80
2022-12-01T15:48:37.190Z,17.38
2022-12-01T15:51:09.895Z,16.85
2022-12-01T15:53:39.870Z,17.20
2022-12-01T15:56:09.016Z,17.58
2022-12-01T15:58:42.067Z,20.25
2022-12-01T16:01:12.970Z,21.20
2022-12-01T16:03:52.414Z,18.30
2022-12-01T16:06:20.928Z,19.08
2022-12-01T16:09:18.816Z,17.17
2022-12-01T16:12:18.703Z,19.85
2022-12-01T16:14:54.489Z,20.20
2022-12-01T16:17:22.158Z,19.52
2022-12-01T16:19:48.595Z,21.17
2022-12-01T16:22:20.110Z,21.67
2022-12-01T16:24:51.362Z,23.40
2022-12-01T16:27:25.151Z,22.83
2022-12-01T16:29:59.012Z,25.02
2022-12-01T16:32:25.403Z,29.33
2022-12-01T16:34:52.838Z,31.63
2022-12-01T16:37:21.437Z,26.50
2022-12-01T16:39:48.234Z,26.17
2022-12-01T16:42:16.691Z,25.40
2022-12-01T16:44:44.552Z,23.98
2022-12-01T16:47:25.244Z,27.08
2022-12-01T16:49:52.392Z,27.05
2022-12-01T16:55:18.962Z,26.52
2022-12-01T16:57:45.396Z,27.23
2022-12-01T17:00:12.268Z,25.95
2022-12-01T17:02:38.700Z,33.75
2022-12-01T17:05:05.302Z,29.33
2022-12-01T17:07:31.843Z,27.80
2022-12-01T17:09:58.317Z,30.23
2022-12-01T17:12:26.636Z,27.27
2022-12-01T17:14:53.037Z,27.40
2022-12-01T17:17:19.396Z,34.53
2022-12-01T17:19:45.860Z,28.30
2022-12-01T17:22:12.278Z,28.27
2022-12-01T17:24:39.015Z,26.27
2022-12-01T17:27:05.483Z,28.58
2022-12-01T17:29:31.871Z,27.63
2022-12-01T17:31:58.297Z,27.20
2022-12-01T17:34:24.763Z,26.60
2022-12-01T17:36:52.532Z,25.17
2022-12-01T17:39:19.382Z,26.67
2022-12-01T17:41:45.826Z,28.08
2022-12-01T17:44:12.348Z,26.15
2022-12-01T17:46:38.841Z,26.13
2022-12-01T17:49:09.307Z,25.00
2022-12-01T17:51:36.624Z,25.92
2022-12-01T17:54:03.275Z,26.20
2022-12-01T17:56:29.767Z,26.38
2022-12-01T17:58:56.356Z,25.98
2022-12-01T18:01:28.453Z,25.75
2022-12-01T18:03:58.174Z,24.23
2022-12-01T18:06:25.634Z,25.77
2022-12-01T18:08:53.095Z,26.08
2022-12-01T18:11:20.347Z,23.55
2022-12-01T18:13:48.733Z,26.42
2022-12-01T18:16:24.970Z,26.92
2022-12-01T18:18:52.207Z,26.10
2022-12-01T18:21:21.086Z,27.10
2022-12-01T18:23:58.301Z,25.08
2022-12-01T18:26:26.461Z,24.48
2022-12-01T18:28:54.702Z,24.42
2022-12-01T18:31:21.237Z,23.25
2022-12-01T18:33:47.712Z,24.33
2022-12-01T18:36:20.493Z,23.08
2022-12-01T18:38:47.574Z,22.92
2022-12-01T18:41:14.631Z,25.67
2022-12-01T18:43:41.303Z,24.30
2022-12-01T18:46:08.849Z,22.60
2022-12-01T18:48:35.473Z,24.17
2022-12-01T18:51:04.546Z,22.63
2022-12-01T18:53:31.467Z,23.00
2022-12-01T18:56:02.594Z,23.10
2022-12-01T18:58:29.668Z,22.90
2022-12-01T19:00:56.135Z,21.40
2022-12-01T19:03:22.631Z,23.80
2022-12-01T19:05:49.214Z,23.95
2022-12-01T19:08:15.618Z,23.05
2022-12-01T19:10:42.159Z,25.23
2022-12-01T19:13:08.569Z,23.00
2022-12-01T19:15:36.954Z,23.52
2022-12-01T19:18:03.448Z,24.27
2022-12-01T19:20:29.923Z,24.55
2022-12-01T19:22:56.349Z,25.20
2022-12-01T19:25:22.704Z,23.73
2022-12-01T19:27:51.064Z,23.38
2022-12-01T19:30:17.599Z,23.23
2022-12-01T19:32:44.282Z,23.45
2022-12-01T19:35:11.059Z,23.48
2022-12-01T19:37:37.439Z,23.75
2022-12-01T19:40:05.339Z,23.15
2022-12-01T19:42:32.097Z,24.85
2022-12-01T19:44:59.454Z,22.25
2022-12-01T19:47:25.795Z,23.55
2022-12-01T19:49:52.507Z,23.60
2022-12-01T19:52:18.839Z,25.02
2022-12-01T19:54:49.692Z,24.77
2022-12-01T19:57:16.286Z,25.27
2022-12-01T19:59:42.633Z,26.60
2022-12-01T20:02:10.530Z,24.52
2022-12-01T20:04:38.763Z,26.13
2022-12-01T20:07:05.723Z,24.63
2022-12-01T20:09:32.241Z,26.13
2022-12-01T20:11:58.602Z,25.15
2022-12-01T20:14:25.082Z,25.77
2022-12-01T20:16:54.648Z,24.75
2022-12-01T20:19:21.234Z,27.17
2022-12-01T20:21:48.496Z,26.85
2022-12-01T20:24:18.524Z,28.63
2022-12-01T20:26:48.127Z,28.13
2022-12-01T20:29:17.612Z,28.50
2022-12-01T20:31:44.822Z,26.05
2022-12-01T20:34:18.178Z,28.70
2022-12-01T20:36:44.806Z,29.77
2022-12-01T20:39:11.743Z,30.25
2022-12-01T20:41:39.706Z,31.02
2022-12-01T20:44:07.678Z,29.98
2022-12-01T20:46:35.759Z,28.77
2022-12-01T20:49:02.195Z,26.65
2022-12-01T20:51:28.537Z,25.80
2022-12-01T20:54:26.206Z,27.48
2022-12-01T20:56:41.346Z,25.75
2022-12-01T20:59:07.891Z,28.52
2022-12-01T21:01:34.460Z,27.52
2022-12-01T21:04:00.959Z,26.10
2022-12-01T21:06:29.029Z,27.27
2022-12-01T21:08:55.589Z,28.73
2022-12-01T21:11:47.424Z,27.25
2022-12-01T21:14:25.852Z,25.63
2022-12-01T21:16:56.586Z,27.40
2022-12-01T21:19:30.424Z,26.58
2022-12-01T21:21:58.212Z,27.35
2022-12-01T21:24:33.523Z,26.65
2022-12-01T21:27:12.593Z,27.20
2022-12-01T21:29:49.436Z,26.58
2022-12-01T21:32:20.863Z,27.27
2022-12-01T21:34:48.055Z,27.67
2022-12-01T21:37:21.783Z,28.23
2022-12-01T21:39:52.753Z,28.35
2022-12-01T21:42:22.018Z,27.27
2022-12-01T21:44:49.259Z,26.67
2022-12-01T21:47:20.629Z,28.48
2022-12-01T21:49:50.529Z,28.55
2022-12-01T21:52:20.088Z,28.48
2022-12-01T21:54:47.044Z,25.98
2022-12-01T21:57:39.784Z,26.98
2022-12-01T22:00:35.620Z,26.27
2022-12-01T22:03:08.003Z,25.55
2022-12-01T22:05:40.317Z,24.38
2022-12-01T22:08:32.346Z,23.90
2022-12-01T22:11:20.828Z,23.10
2022-12-01T22:13:50.419Z,22.65
2022-12-01T22:16:21.122Z,24.25
2022-12-01T22:18:51.712Z,23.45
2022-12-01T22:21:23.930Z,23.65
2022-12-01T22:24:01.010Z,22.83
2022-12-01T22:26:27.824Z,25.92
2022-12-01T22:28:57.886Z,25.20
2022-12-01T22:31:24.363Z,23.90
2022-12-01T22:34:00.127Z,25.67
2022-12-01T22:36:31.363Z,25.10
2022-12-01T22:38:58.057Z,25.70
2022-12-01T22:41:24.731Z,27.08
2022-12-01T22:43:55.926Z,25.38
2022-12-01T22:46:26.854Z,25.05
2022-12-01T22:49:19.389Z,26.25
2022-12-01T22:52:02.127Z,26.00
2022-12-01T22:54:34.609Z,24.88
2022-12-01T22:57:05.148Z,25.38
2022-12-01T22:59:35.460Z,24.23
2022-12-01T23:02:14.401Z,25.17
2022-12-01T23:04:45.114Z,23.48
2022-12-01T23:07:26.488Z,23.95
2022-12-01T23:09:53.115Z,23.67
2022-12-01T23:12:30.697Z,21.38
2022-12-01T23:15:00.769Z,21.77
2022-12-01T23:17:29.626Z,21.92
2022-12-01T23:20:32.136Z,23.02
2022-12-01T23:23:05.014Z,23.27
2022-12-01T23:25:31.872Z,21.58
2022-12-01T23:28:02.743Z,21.63
2022-12-01T23:30:29.356Z,23.67
2022-12-01T23:33:03.894Z,24.13
2022-12-01T23:35:39.011Z,22.98
2022-12-01T23:38:05.501Z,23.42
2022-12-01T23:40:36.109Z,25.38
2022-12-01T23:43:26.763Z,24.45
2022-12-01T23:46:06.610Z,24.77
2022-12-01T23:48:41.558Z,27.70
2022-12-01T23:51:25.354Z,26.23
2022-12-01T23:53:53.735Z,28.13
2022-12-01T23:56:22.977Z,27.38
2022-12-01T23:58:50.477Z,27.98
